• Join FlightAware (Why Join?)
  • Login
  • US Flag 
10:08AM EST


 

Airport Tracker/Info


-or-


 

Live Flight TrackerFlight Track Log ✈ VH-NCK ✈ 29-Jun-2012 ✈ YPKU / KNX - YBRM / BME

Flight Track Log - Related Links

Times and Time Zones

All times are in EDT time to prevent confusion due to time zone crossing. See the VH-NCK flight status page for this flight to view local times or setup timezone preferences in your user account.

Time Position Orientation Groundspeed Altitude Reporting Facility
EDT Latitude Longitude Course Direction KTS MPH feet Rate Location/Type
11:34PM -16.2220 127.4398 249° West  Level Estimated
11:35PM -16.2388 127.3933 250° West  Level FlightAware Approximate
11:36PM -16.2534 127.3510 250° West  Level Estimated
11:37PM -16.2682 127.3083 250° West  Level FlightAware Approximate
11:38PM -16.2829 127.2660 250° West  Level Estimated
11:39PM -16.2977 127.2233 250° West  Level FlightAware Approximate
11:40PM -16.3123 127.1810 250° West  Level Estimated
11:41PM -16.3270 127.1383 250° West  Level FlightAware Approximate
11:42PM -16.3416 127.0959 250° West  Level Estimated
11:43PM -16.3564 127.0532 250° West  Level FlightAware Approximate
11:44PM -16.3710 127.0108 250° West  Level Estimated
11:45PM -16.3857 126.9681 250° West  Level FlightAware Approximate
11:46PM -16.4003 126.9257 250° West  Level Estimated
11:47PM -16.4150 126.8830 250° West  Level FlightAware Approximate
11:48PM -16.4295 126.8406 250° West  Level Estimated
11:49PM -16.4442 126.7978 250° West  Level FlightAware Approximate
11:50PM -16.4587 126.7554 250° West  Level Estimated
11:51PM -16.4686 126.7269 250° West  Level FlightAware Approximate
11:52PM -16.4831 126.6844 250° West  Level Estimated
11:53PM -16.4978 126.6417 250° West  Level FlightAware Approximate
11:54PM -16.5122 126.5992 250° West  Level Estimated
11:55PM -16.5269 126.5564 250° West  Level FlightAware Approximate
11:56PM -16.5414 126.5140 250° West  Level Estimated
11:57PM -16.5560 126.4712 250° West  Level FlightAware Approximate
11:58PM -16.5705 126.4287 250° West  Level Estimated
11:59PM -16.5851 126.3859 250° West  Level FlightAware Approximate
12:00AM -16.5995 126.3435 250° West  Level Estimated
12:01AM -16.6141 126.3007 250° West  Level FlightAware Approximate
12:02AM -16.6286 126.2582 250° West  Level Estimated
12:03AM -16.6432 126.2153 251° West  Level FlightAware Approximate
12:04AM -16.6575 126.1728 250° West  Level Estimated
12:05AM -16.6721 126.1300 251° West  Level FlightAware Approximate
12:06AM -16.6865 126.0875 250° West  Level Estimated
12:07AM -16.7011 126.0446 251° West  Level FlightAware Approximate
12:08AM -16.7154 126.0021 250° West  Level Estimated
12:09AM -16.7300 125.9592 251° West  Level FlightAware Approximate
12:10AM -16.7443 125.9167 251° West  Level Estimated
12:11AM -16.7588 125.8738 251° West  Level FlightAware Approximate
12:12AM -16.7732 125.8312 251° West  Level Estimated
12:13AM -16.7877 125.7883 251° West  Level FlightAware Approximate
12:14AM -16.8020 125.7458 251° West  Level Estimated
12:15AM -16.8165 125.7029 251° West  Level FlightAware Approximate
12:16AM -16.8307 125.6603 251° West  Level Estimated
12:17AM -16.8452 125.6174 251° West  Level FlightAware Approximate
12:18AM -16.8595 125.5748 251° West  Level Estimated
12:19AM -16.8740 125.5318 251° West  Level FlightAware Approximate
12:20AM -16.8882 125.4892 251° West  Level Estimated
12:21AM -16.9027 125.4463 251° West  Level FlightAware Approximate
12:22AM -16.9169 125.4037 251° West  Level Estimated
12:23AM -16.9313 125.3607 251° West  Level FlightAware Approximate
12:24AM -16.9455 125.3181 251° West  Level Estimated
12:25AM -16.9599 125.2751 251° West  Level FlightAware Approximate
12:26AM -16.9741 125.2325 251° West  Level Estimated
12:27AM -16.9885 125.1895 251° West  Level FlightAware Approximate
12:28AM -17.0027 125.1468 251° West  Level Estimated
12:29AM -17.0171 125.1038 251° West  Level FlightAware Approximate
12:30AM -17.0312 125.0611 251° West  Level Estimated
12:31AM -17.0456 125.0181 251° West  Level FlightAware Approximate
12:32AM -17.0597 124.9754 251° West  Level Estimated
12:33AM -17.0741 124.9324 251° West  Level FlightAware Approximate
12:34AM -17.0882 124.8897 251° West  Level Estimated
12:35AM -17.1025 124.8467 251° West  Level FlightAware Approximate
12:36AM -17.1166 124.8040 251° West  Level Estimated
12:37AM -17.1309 124.7609 251° West  Level FlightAware Approximate
12:38AM -17.1450 124.7182 251° West  Level Estimated
12:39AM -17.1593 124.6751 251° West  Level FlightAware Approximate
12:40AM -17.1733 124.6324 251° West  Level Estimated
12:41AM -17.1876 124.5893 251° West  Level FlightAware Approximate
12:42AM -17.2017 124.5466 251° West  Level Estimated
12:43AM -17.2159 124.5035 251° West  Level FlightAware Approximate
12:44AM -17.2299 124.4607 251° West  Level Estimated
12:45AM -17.2442 124.4176 251° West  Level FlightAware Approximate
12:46AM -17.2582 124.3748 251° West  Level Estimated
12:47AM -17.2724 124.3317 251° West  Level FlightAware Approximate
12:48AM -17.2864 124.2889 251° West  Level Estimated
12:49AM -17.3006 124.2458 251° West  Level FlightAware Approximate
12:50AM -17.3145 124.2030 251° West  Level Estimated
12:51AM -17.3287 124.1599 251° West  Level FlightAware Approximate
12:52AM -17.3427 124.1170 251° West  Level Estimated
12:53AM -17.3568 124.0739 251° West  Level FlightAware Approximate
12:54AM -17.3708 124.0311 251° West  Level Estimated
12:55AM -17.3849 123.9879 251° West  Level FlightAware Approximate
12:56AM -17.3988 123.9450 251° West  Level Estimated
12:57AM -17.4130 123.9019 251° West  Level FlightAware Approximate
12:58AM -17.4268 123.8590 251° West  Level Estimated
12:59AM -17.4410 123.8158 251° West  Level FlightAware Approximate
01:00AM -17.4548 123.7729 251° West  Level Estimated
01:01AM -17.4690 123.7297 251° West  Level FlightAware Approximate
01:02AM -17.4828 123.6868 251° West  Level Estimated
01:03AM -17.4969 123.6436 251° West  Level FlightAware Approximate
01:04AM -17.5107 123.6007 251° West  Level Estimated
01:05AM -17.5248 123.5575 251° West  Level FlightAware Approximate
01:06AM -17.5385 123.5146 251° West  Level Estimated
01:07AM -17.5480 123.4857 251° West  Level FlightAware Approximate
01:08AM -17.5617 123.4428 251° West  Level Estimated
01:09AM -17.5758 123.3995 251° West  Level FlightAware Approximate
01:10AM -17.5895 123.3566 251° West  Level Estimated
01:11AM -17.6036 123.3133 252° West  Level FlightAware Approximate
01:12AM -17.6173 123.2703 251° West  Level Estimated
01:13AM -17.6313 123.2271 252° West  Level FlightAware Approximate
01:14AM -17.6450 123.1841 251° West  Level Estimated
01:15AM -17.6591 123.1408 252° West  Level FlightAware Approximate
01:16AM -17.6727 123.0978 251° West  Level Estimated
01:17AM -17.6867 123.0545 252° West  Level FlightAware Approximate
01:18AM -17.7003 123.0115 251° West  Level Estimated
01:19AM -17.7144 122.9682 252° West  Level FlightAware Approximate
01:20AM -17.7279 122.9252 251° West  Level Estimated
01:21AM -17.7420 122.8819 252° West  Level FlightAware Approximate
01:22AM -17.7555 122.8388 251° West  Level Estimated
01:23AM -17.7695 122.7955 252° West  Level FlightAware Approximate
01:24AM -17.7830 122.7524 251° West  Level Estimated
01:25AM -17.7971 122.7091 252° West  Level FlightAware Approximate
01:26AM -17.8104 122.6660 251° West  Level Estimated
01:27AM -17.8246 122.6227 252° West  Level FlightAware Approximate
01:28AM -17.8379 122.5796 251° West  Level Estimated
01:29AM -17.8520 122.5363 252° West  Level FlightAware Approximate
01:30AM -17.8652 122.4931 251° West  Level Estimated
01:31AM -17.8794 122.4498 253° West  Level FlightAware Approximate
01:32AM -17.8924 122.4065 251° West  Level Estimated
01:33AM -17.9068 122.3633 253° West  Level FlightAware Approximate
01:34AM -17.9193 122.3199 250° West  Level Estimated
01:35AM -17.9341 122.2768 256° West  Level FlightAware Approximate
01:36AM -17.9445 122.2327 223° Southwest  Level Estimated
01:37AM -17.9496 122.2277 38° Northeast  Level FlightAware Approximate
01:38AM -17.9154 122.2554 218° Southwest  Level Estimated
01:39AM -17.9496 122.2277 38° Northeast  Level FlightAware Approximate
01:40AM -17.9154 122.2554 218° Southwest  Level Estimated
01:41AM -17.9496 122.2277 38° Northeast  Level FlightAware Approximate
01:42AM -17.9154 122.2554 218° Southwest  Level Estimated
01:43AM -17.9496 122.2277 38° Northeast  Level FlightAware Approximate
01:44AM -17.9154 122.2554 218° Southwest  Level Estimated
01:45AM -17.9496 122.2277 38° Northeast  Level FlightAware Approximate
01:46AM -17.9154 122.2554 218° Southwest  Level Estimated
01:47AM -17.9496 122.2277 38° Northeast  Level FlightAware Approximate
01:48AM -17.9154 122.2554 218° Southwest  Level Estimated
01:49AM -17.9496 122.2277 38° Northeast  Level FlightAware Approximate
01:50AM -17.9154 122.2554 218° Southwest  Level Estimated
01:51AM -17.9496 122.2277 218° Southwest  Level FlightAware Approximate